עמוד ראשי
תמונות לווין תחזית 10-יוםאקליםתחזית ים סופות טרופיות ברקים שדות תעופהשאלות נפוצות עלון אודות
מזג אוויר : אירופה אפריקה אמריקה הצפונית אמריקה הדרומית אסיה אוסטרליה-אוקיאניה אחרים
שפות איש קשר

סלוניקי, יוון

נמל התעופה הבינלאומי סלוניקי מקדוניה

קו רוחב: 40-31N, קו אורך: 022-58E, גובה: 8מטר


METAR: LGTS 051220Z 26006KT 9999 FEW035 30/13 Q1017 NOSIG
TAF: LGTS 051100Z 0512/0612 16015KT 9999 FEW030 BECMG 0520/0522 VRB03KT CAVOK

זמן: 15:50 (12:50 UTC)

תצפית מזג אוויר נוכחית

הדו"ח נערך לפני 30דקות, בשעה 12:20 UTC
רוח 6קשר מכיוון מערב
טמפרטורת 30 צלסיוס
לחות 35%
לחץ 1017 hPa
ראות 10 קילומטר או יותר
מעט עננים בגובה 3500רגל

שנה יחידות

תחזית

הדו"ח נערך לפני 1 שעות ו 50דקות, בשעה 11:00 UTC
תחזית בתוקף מ 05 ב 12 UTC עד 06 ב 12 UTC
רוח 15קשר מכיוון דרום/דרום-מזרח
ראות 10 קילומטר או יותר
מעט עננים בגובה 3000רגל
יעשה מ
05 ב 20 UTC עד 05 ב 22 UTC
רוח 3קשר עם כיוונים משתנים
ראות 10 קילומטר או יותר
ללא עננים שבסיסם נמוך מ 1500 רגל או קומולונימבוס
המידע באתר זה מותנה של תניית פטור
מזג אוויר : אירופה אפריקה אמריקה הצפונית אמריקה הדרומית אסיה אוסטרליה-אוקיאניה אחרים
תמונות לווין תחזית 10-יוםאקליםתחזית ים סופות טרופיות ברקים שדות תעופהשאלות נפוצות שפות איש קשר עלון אודות